Time;durP1;ratioP1;P1;durP2;ratioP2;P2;SDS_P1;SDS_P2;PMS_P1;PMS_P2;Temp;Humidity;BMP_temperature;BMP_pressure;BME280_temperature;BME280_humidity;BME280_pressure;Samples;Min_cycle;Max_cycle;Signal;HPM_P1;HPM_P2
2021/12/17 00:00:57;;;;;;;13.45;7.22;;;4.80;99.90;;;;;;5074463;28;20033;-74
2021/12/17 00:03:33;;;;;;;13.65;7.57;;;4.80;99.90;;;;;;5056395;28;20025;-74
2021/12/17 00:06:13;;;;;;;14.25;8.43;;;4.80;99.90;;;;;;5056092;28;20028;-73
2021/12/17 00:08:42;;;;;;;13.38;7.40;;;4.70;99.90;;;;;;5051672;28;20061;-74
2021/12/17 00:11:10;;;;;;;13.02;7.38;;;4.70;99.90;;;;;;5065607;28;20036;-73
2021/12/17 00:13:37;;;;;;;15.05;8.32;;;4.70;99.90;;;;;;5056300;28;20079;-72
2021/12/17 00:16:13;;;;;;;13.60;7.55;;;4.70;99.90;;;;;;5055676;28;20029;-73
2021/12/17 00:18:54;;;;;;;14.85;7.78;;;4.70;99.90;;;;;;5062397;28;20112;-73
2021/12/17 00:48:41;;;;;;;11.15;5.70;;;4.80;99.90;;;;;;5072150;28;20047;-73
2021/12/17 00:53:58;;;;;;;9.15;4.85;;;4.70;99.90;;;;;;5074099;28;20473;-73
2021/12/17 00:56:24;;;;;;;8.27;4.60;;;4.70;99.90;;;;;;5055777;28;20082;-73
2021/12/17 00:58:50;;;;;;;10.00;4.68;;;4.70;99.90;;;;;;5062989;28;20481;-73
2021/12/17 01:01:17;;;;;;;9.73;4.80;;;4.70;99.90;;;;;;5073333;28;20082;-73
2021/12/17 01:03:43;;;;;;;9.88;5.07;;;4.60;99.90;;;;;;5073322;28;20559;-73
2021/12/17 01:06:09;;;;;;;7.55;3.85;;;4.60;99.90;;;;;;5073183;28;20480;-73
2021/12/17 01:08:35;;;;;;;8.83;4.40;;;4.60;99.90;;;;;;5072048;28;20032;-73
2021/12/17 01:11:01;;;;;;;9.10;4.27;;;4.60;99.90;;;;;;5071611;28;20033;-73
2021/12/17 01:13:28;;;;;;;9.15;4.50;;;4.70;99.90;;;;;;5055100;28;20032;-73
2021/12/17 01:15:55;;;;;;;9.00;3.58;;;4.60;99.90;;;;;;5073082;28;20036;-73
2021/12/17 01:18:24;;;;;;;8.20;3.83;;;4.60;99.90;;;;;;5071959;28;20062;-73
2021/12/17 01:42:40;;;;;;;6.72;3.05;;;4.50;99.90;;;;;;5073243;28;20064;-72
2021/12/17 01:45:06;;;;;;;7.27;3.30;;;4.40;99.90;;;;;;5054586;28;20067;-73
2021/12/17 01:47:33;;;;;;;8.02;3.53;;;4.50;99.90;;;;;;5054234;28;20028;-72
2021/12/17 02:00:55;;;;;;;7.43;2.88;;;4.40;99.90;;;;;;5060325;28;20132;-73
2021/12/17 02:03:22;;;;;;;7.90;2.70;;;4.40;99.90;;;;;;5052508;28;20032;-72
2021/12/17 02:05:48;;;;;;;8.30;3.17;;;4.40;99.90;;;;;;5066069;28;20032;-72
2021/12/17 02:08:14;;;;;;;6.43;2.87;;;4.40;99.90;;;;;;5054021;28;20408;-74
2021/12/17 02:32:27;;;;;;;4.35;2.15;;;4.40;99.90;;;;;;5052042;28;20365;-73
2021/12/17 02:35:20;;;;;;;5.43;2.28;;;4.40;99.90;;;;;;5056524;28;20020;-73
2021/12/17 02:37:48;;;;;;;5.90;2.90;;;4.40;99.90;;;;;;5062867;28;20024;-73
2021/12/17 02:48:01;;;;;;;7.20;2.92;;;4.40;99.90;;;;;;5051918;28;20025;-72
2021/12/17 02:50:27;;;;;;;6.93;3.85;;;4.30;99.90;;;;;;5049147;28;20032;-73
2021/12/17 02:52:56;;;;;;;5.75;2.83;;;4.30;99.90;;;;;;5051962;28;20056;-73
2021/12/17 02:55:22;;;;;;;7.07;3.45;;;4.30;99.90;;;;;;5051642;28;20036;-73
2021/12/17 02:57:49;;;;;;;6.82;2.97;;;4.30;99.90;;;;;;5050568;28;20041;-73
2021/12/17 03:00:16;;;;;;;7.22;2.88;;;4.30;99.90;;;;;;5050202;28;20060;-73
2021/12/17 03:02:43;;;;;;;5.18;3.00;;;4.30;99.90;;;;;;5031901;28;20034;-73
2021/12/17 03:05:10;;;;;;;4.70;2.60;;;4.30;99.90;;;;;;5040130;28;20029;-73
2021/12/17 03:07:40;;;;;;;5.35;2.70;;;4.30;99.90;;;;;;5051850;28;20037;-72
2021/12/17 03:10:09;;;;;;;5.30;2.60;;;4.30;99.90;;;;;;5045938;28;20496;-73
2021/12/17 03:15:22;;;;;;;6.80;2.40;;;4.30;99.90;;;;;;5051630;28;20056;-72
2021/12/17 03:25:56;;;;;;;4.78;2.30;;;4.20;99.90;;;;;;5051474;28;20053;-73
2021/12/17 03:28:22;;;;;;;4.50;2.35;;;4.20;99.90;;;;;;5053065;28;20039;-73
2021/12/17 03:30:48;;;;;;;5.00;2.50;;;4.20;99.90;;;;;;5052045;28;20044;-73
2021/12/17 03:33:13;;;;;;;4.35;2.40;;;4.20;99.90;;;;;;5055389;28;20396;-73
2021/12/17 03:35:39;;;;;;;6.67;3.10;;;4.20;99.90;;;;;;5054723;28;20040;-73
2021/12/17 03:38:06;;;;;;;4.67;2.47;;;4.20;99.90;;;;;;5055229;28;20037;-73
2021/12/17 03:40:33;;;;;;;5.93;2.90;;;4.20;99.90;;;;;;5072444;28;20810;-74
2021/12/17 03:43:10;;;;;;;6.55;2.55;;;4.20;99.90;;;;;;5074043;28;20033;-73
2021/12/17 03:45:36;;;;;;;;;;;4.20;99.90;;;;;;5057154;28;20032;-73
2021/12/17 03:48:02;;;;;;;5.85;2.78;;;4.20;99.90;;;;;;5075105;28;19927;-73
2021/12/17 03:50:33;;;;;;;5.45;2.75;;;4.20;99.90;;;;;;5063408;28;20112;-74
2021/12/17 03:52:58;;;;;;;8.88;2.42;;;4.20;99.90;;;;;;5050860;28;20056;-73
2021/12/17 03:55:24;;;;;;;5.67;2.60;;;4.20;99.90;;;;;;5065305;28;20044;-72
2021/12/17 03:57:50;;;;;;;6.13;2.77;;;4.20;99.90;;;;;;5074879;28;20495;-73
2021/12/17 04:00:16;;;;;;;7.33;2.67;;;4.20;99.90;;;;;;5069540;28;20028;-74
2021/12/17 04:02:42;;;;;;;6.23;3.07;;;4.10;99.90;;;;;;5068631;28;20938;-74
2021/12/17 04:05:07;;;;;;;7.07;2.90;;;4.10;99.90;;;;;;5056285;28;20050;-74
2021/12/17 04:07:34;;;;;;;9.07;3.23;;;4.20;99.90;;;;;;5074529;28;20029;-73
2021/12/17 04:10:00;;;;;;;8.13;2.78;;;4.20;99.90;;;;;;5072828;28;20482;-71
2021/12/17 04:12:41;;;;;;;5.37;2.73;;;4.20;99.90;;;;;;5047844;28;20115;-74
2021/12/17 04:15:08;;;;;;;6.82;3.00;;;4.20;99.90;;;;;;5074315;28;20110;-74
2021/12/17 04:17:41;;;;;;;5.93;3.00;;;4.20;99.90;;;;;;5056656;28;20033;-73
2021/12/17 04:20:08;;;;;;;7.60;3.95;;;4.20;99.90;;;;;;5054301;28;20462;-73
2021/12/17 04:22:33;;;;;;;7.28;2.95;;;4.20;99.90;;;;;;5054194;28;20029;-72
2021/12/17 04:24:59;;;;;;;7.50;3.20;;;4.20;99.90;;;;;;5060967;28;20392;-73
2021/12/17 04:27:25;;;;;;;7.33;2.73;;;4.20;99.90;;;;;;5074216;28;20115;-73
2021/12/17 04:29:51;;;;;;;7.70;2.17;;;4.20;99.90;;;;;;5072121;28;20032;-73
2021/12/17 04:32:17;;;;;;;;;;;4.20;99.90;;;;;;5056200;28;20032;-74
2021/12/17 04:34:43;;;;;;;8.07;2.85;;;4.10;99.90;;;;;;5055565;28;19987;-73
2021/12/17 04:37:09;;;;;;;6.93;2.50;;;4.10;99.90;;;;;;5055952;28;20028;-74
2021/12/17 04:39:35;;;;;;;3.77;2.20;;;4.10;99.90;;;;;;5049646;28;20759;-74
2021/12/17 04:42:07;;;;;;;5.45;3.10;;;4.10;99.90;;;;;;5053846;28;20029;-74
2021/12/17 04:44:37;;;;;;;8.27;2.58;;;4.10;99.90;;;;;;5052532;28;20108;-72
2021/12/17 04:57:49;;;;;;;7.07;2.38;;;4.10;99.90;;;;;;5053795;28;20122;-73
2021/12/17 05:00:26;;;;;;;4.15;2.17;;;4.10;99.90;;;;;;5047500;28;20056;-73
2021/12/17 05:02:55;;;;;;;5.97;2.35;;;4.10;99.90;;;;;;5033548;28;20448;-72
2021/12/17 05:05:28;;;;;;;4.70;2.13;;;4.10;99.90;;;;;;5043266;28;20072;-73
2021/12/17 05:08:01;;;;;;;5.72;2.42;;;4.10;99.90;;;;;;5053517;28;20049;-74
2021/12/17 05:18:27;;;;;;;5.72;2.38;;;4.10;99.90;;;;;;5053324;28;20465;-74
2021/12/17 05:20:59;;;;;;;5.15;2.30;;;4.00;99.90;;;;;;5045199;28;20033;-73
2021/12/17 05:23:34;;;;;;;7.50;2.63;;;4.10;99.90;;;;;;5053093;28;20033;-74
2021/12/17 05:26:06;;;;;;;9.57;3.10;;;4.00;99.90;;;;;;5053243;28;20393;-74
2021/12/17 05:28:31;;;;;;;6.40;2.78;;;4.00;99.90;;;;;;5050617;28;20029;-73
2021/12/17 05:30:57;;;;;;;6.03;2.63;;;4.00;99.90;;;;;;5040327;28;20040;-74
2021/12/17 05:33:24;;;;;;;7.60;3.20;;;4.00;99.90;;;;;;5032968;28;20111;-74
2021/12/17 05:35:51;;;;;;;7.47;2.67;;;4.00;99.90;;;;;;5046825;28;20041;-74
2021/12/17 05:38:19;;;;;;;5.65;2.33;;;4.00;99.90;;;;;;5051508;28;20035;-75
2021/12/17 05:40:46;;;;;;;7.38;2.63;;;4.00;99.90;;;;;;5052761;28;20097;-73
2021/12/17 05:43:14;;;;;;;7.57;3.00;;;4.00;99.90;;;;;;5072635;28;20066;-73
2021/12/17 05:46:03;;;;;;;7.30;3.20;;;4.00;99.90;;;;;;5054170;28;20146;-73
2021/12/17 05:48:29;;;;;;;5.95;3.20;;;4.00;99.90;;;;;;5072819;28;20463;-73
2021/12/17 05:51:00;;;;;;;8.40;4.07;;;4.00;99.90;;;;;;5069964;28;20043;-73
2021/12/17 05:53:28;;;;;;;8.02;3.38;;;4.00;99.90;;;;;;5072280;28;20371;-73
2021/12/17 05:55:54;;;;;;;8.27;3.20;;;4.00;99.90;;;;;;5072403;28;20032;-73
2021/12/17 05:58:21;;;;;;;5.88;3.35;;;4.00;99.90;;;;;;5072337;28;20025;-73
2021/12/17 06:00:47;;;;;;;4.65;2.67;;;4.00;99.90;;;;;;5069827;28;20086;-73
2021/12/17 06:03:14;;;;;;;5.90;2.45;;;3.90;99.90;;;;;;5054285;28;20119;-73
2021/12/17 06:05:40;;;;;;;9.18;3.30;;;3.90;99.90;;;;;;5053665;28;20495;-73
2021/12/17 06:08:06;;;;;;;7.13;3.30;;;4.00;99.90;;;;;;5072396;28;20036;-73
2021/12/17 06:10:32;;;;;;;6.95;2.72;;;4.00;99.90;;;;;;5069523;28;20039;-73
2021/12/17 06:12:58;;;;;;;6.03;3.10;;;4.00;99.90;;;;;;5052172;28;20404;-74
2021/12/17 06:15:25;;;;;;;4.53;2.03;;;4.00;99.90;;;;;;5056964;28;20029;-74
2021/12/17 06:17:52;;;;;;;7.85;3.00;;;4.00;99.90;;;;;;5051719;28;20255;-73
2021/12/17 06:20:20;;;;;;;5.00;2.45;;;3.90;99.90;;;;;;5052062;28;20040;-74
2021/12/17 06:22:47;;;;;;;6.30;2.90;;;3.90;99.90;;;;;;5052024;28;20063;-74
2021/12/17 06:25:13;;;;;;;6.53;2.30;;;3.90;99.90;;;;;;5060699;28;20082;-74
2021/12/17 06:27:40;;;;;;;6.75;2.67;;;4.00;99.90;;;;;;5071889;28;20025;-74
2021/12/17 06:30:08;;;;;;;5.80;2.70;;;4.00;99.90;;;;;;5063882;28;20044;-73
2021/12/17 06:32:34;;;;;;;7.07;3.17;;;4.00;99.90;;;;;;5051828;28;20024;-73
2021/12/17 06:35:00;;;;;;;7.90;3.10;;;4.00;99.90;;;;;;5058815;28;20159;-73
2021/12/17 06:37:26;;;;;;;7.80;2.70;;;4.00;99.90;;;;;;5071770;28;20033;-73
2021/12/17 06:39:52;;;;;;;5.33;2.80;;;4.00;99.90;;;;;;5050109;28;20302;-73
2021/12/17 06:42:18;;;;;;;10.97;3.27;;;4.00;99.90;;;;;;5051767;28;20392;-74
2021/12/17 06:44:46;;;;;;;6.22;3.20;;;4.00;99.90;;;;;;5049985;28;20386;-73
2021/12/17 06:47:25;;;;;;;6.70;3.10;;;4.00;99.90;;;;;;5050575;28;20075;-74
2021/12/17 07:10:57;;;;;;;5.32;2.92;;;4.10;99.90;;;;;;5055488;28;20120;-73
2021/12/17 07:39:54;;;;;;;;;;;4.40;99.90;;;;;;5058326;28;20045;-70
2021/12/17 07:42:20;;;;;;;5.55;2.47;;;4.40;99.90;;;;;;5062442;28;19918;-68
2021/12/17 07:44:46;;;;;;;5.83;2.70;;;4.40;99.90;;;;;;5070301;28;20075;-69
2021/12/17 07:47:12;;;;;;;4.95;2.47;;;4.40;99.90;;;;;;5071230;28;20087;-70
2021/12/17 07:49:38;;;;;;;7.00;2.93;;;4.30;99.90;;;;;;5068944;28;20131;-70
2021/12/17 07:52:04;;;;;;;5.90;2.63;;;4.30;99.90;;;;;;5070624;28;20176;-69
2021/12/17 07:54:29;;;;;;;6.53;3.30;;;4.30;99.90;;;;;;5070674;28;20064;-69
2021/12/17 07:56:55;;;;;;;5.87;2.80;;;4.20;99.90;;;;;;5072051;28;20063;-67
2021/12/17 07:59:21;;;;;;;6.93;2.60;;;4.20;99.90;;;;;;5073498;28;20376;-68
2021/12/17 08:01:47;;;;;;;4.40;2.73;;;4.30;99.90;;;;;;5069951;28;20024;-65
2021/12/17 08:04:12;;;;;;;6.37;3.10;;;4.40;99.90;;;;;;5070503;28;20020;-71
2021/12/17 08:06:39;;;;;;;22.47;13.23;;;4.70;99.90;;;;;;5067937;28;20029;-67
2021/12/17 08:09:05;;;;;;;5.55;2.95;;;4.80;99.90;;;;;;5068961;28;20020;-64
2021/12/17 08:11:37;;;;;;;6.50;3.22;;;4.80;99.90;;;;;;5067341;28;20043;-66
2021/12/17 08:14:07;;;;;;;10.32;6.50;;;4.70;99.90;;;;;;5072177;28;20047;-66
2021/12/17 08:24:59;;;;;;;5.80;2.92;;;4.50;99.90;;;;;;5068220;28;20441;-67
2021/12/17 08:29:56;;;;;;;8.77;3.10;;;4.50;99.90;;;;;;5066117;28;20135;-65
2021/12/17 08:32:22;;;;;;;7.43;3.35;;;4.50;99.90;;;;;;5065020;28;20479;-68
2021/12/17 08:34:49;;;;;;;7.03;3.55;;;4.60;99.90;;;;;;5056284;28;20033;-66
2021/12/17 08:37:15;;;;;;;6.97;3.28;;;4.50;99.90;;;;;;5046734;28;20118;-66
2021/12/17 08:39:41;;;;;;;5.10;3.17;;;4.50;99.90;;;;;;5062063;28;20113;-67
2021/12/17 08:42:07;;;;;;;7.27;3.27;;;4.50;99.90;;;;;;5063791;28;20024;-68
2021/12/17 08:44:33;;;;;;;5.18;2.88;;;4.50;99.90;;;;;;5064241;28;20075;-67
2021/12/17 08:46:58;;;;;;;6.10;3.07;;;4.50;99.90;;;;;;5060028;28;20060;-66
2021/12/17 08:49:24;;;;;;;4.80;2.90;;;4.40;99.90;;;;;;5063826;28;20051;-65
2021/12/17 08:51:50;;;;;;;6.57;3.27;;;4.40;99.90;;;;;;5058414;28;20033;-66
2021/12/17 08:54:16;;;;;;;5.87;3.30;;;4.50;99.90;;;;;;5038941;28;20089;-66
2021/12/17 08:56:45;;;;;;;6.70;3.15;;;4.50;99.90;;;;;;5061669;28;20078;-68
2021/12/17 08:59:14;;;;;;;5.82;3.28;;;4.50;99.90;;;;;;5069360;28;20036;-68
2021/12/17 09:01:40;;;;;;;7.60;3.17;;;4.70;99.90;;;;;;5054669;28;20020;-67
2021/12/17 09:04:06;;;;;;;9.57;3.25;;;4.80;99.90;;;;;;5069506;28;20051;-67
2021/12/17 09:06:32;;;;;;;5.55;3.33;;;4.70;99.90;;;;;;5073283;28;20043;-67
2021/12/17 09:08:58;;;;;;;6.87;3.50;;;4.60;99.90;;;;;;5069318;28;20093;-68
2021/12/17 09:11:26;;;;;;;10.23;3.33;;;4.60;99.90;;;;;;5068331;28;20033;-68
2021/12/17 09:13:54;;;;;;;6.78;3.58;;;4.60;99.90;;;;;;5072809;28;20067;-66
2021/12/17 09:16:21;;;;;;;5.97;3.22;;;4.50;99.90;;;;;;5069947;28;20094;-63
2021/12/17 09:18:48;;;;;;;8.73;3.53;;;4.40;99.90;;;;;;5070646;28;20032;-65
2021/12/17 09:21:14;;;;;;;133.77;82.97;;;4.40;99.90;;;;;;5066681;28;20353;-62
2021/12/17 09:23:40;;;;;;;29.38;17.15;;;4.40;99.90;;;;;;5065229;28;20036;-61
2021/12/17 09:26:06;;;;;;;7.63;3.60;;;4.60;99.90;;;;;;5066783;28;20040;-67
2021/12/17 09:28:32;;;;;;;8.20;5.17;;;4.70;99.90;;;;;;5071156;28;20127;-66
2021/12/17 09:30:58;;;;;;;5.37;2.20;;;4.80;99.90;;;;;;5069539;28;20043;-67
2021/12/17 09:33:25;;;;;;;6.93;2.95;;;5.20;99.90;;;;;;5069695;28;21014;-66
2021/12/17 09:35:52;;;;;;;8.48;2.80;;;6.40;99.90;;;;;;5068363;28;20036;-68
2021/12/17 09:38:19;;;;;;;5.28;2.10;;;6.40;99.90;;;;;;5066455;28;20029;-64
2021/12/17 09:40:45;;;;;;;5.38;2.47;;;6.10;99.90;;;;;;5069694;28;20044;-65
2021/12/17 09:43:14;;;;;;;7.15;2.75;;;5.80;99.90;;;;;;5071500;28;20078;-64
2021/12/17 09:45:40;;;;;;;4.40;2.55;;;5.50;99.90;;;;;;5061927;28;20049;-65
2021/12/17 09:48:06;;;;;;;5.82;2.38;;;5.30;99.90;;;;;;5060468;28;20035;-65
2021/12/17 09:50:32;;;;;;;5.00;2.13;;;5.00;99.90;;;;;;5066945;28;20036;-65
2021/12/17 09:52:58;;;;;;;5.82;2.70;;;4.80;99.90;;;;;;5062138;28;20032;-68
2021/12/17 09:55:25;;;;;;;5.50;2.57;;;4.80;99.90;;;;;;5066482;28;20577;-63
2021/12/17 09:57:51;;;;;;;8.15;3.90;;;4.70;99.90;;;;;;5062940;28;20330;-64
2021/12/17 10:00:22;;;;;;;6.82;2.97;;;4.80;99.90;;;;;;5071440;28;20479;-64
2021/12/17 10:02:49;;;;;;;9.90;4.25;;;4.80;99.90;;;;;;5053560;28;20055;-63
2021/12/17 10:05:24;;;;;;;6.07;3.58;;;4.80;99.90;;;;;;5070745;28;20119;-64
2021/12/17 10:08:03;;;;;;;5.38;2.40;;;4.80;99.90;;;;;;5073668;28;20511;-64
2021/12/17 10:10:43;;;;;;;8.00;3.33;;;4.90;99.90;;;;;;5063739;28;20055;-67
2021/12/17 10:13:27;;;;;;;5.80;2.72;;;5.20;99.90;;;;;;5072856;28;20032;-64
2021/12/17 10:16:06;;;;;;;5.95;2.63;;;5.40;99.90;;;;;;5070665;28;20060;-66
2021/12/17 10:18:37;;;;;;;5.97;2.47;;;5.40;99.90;;;;;;5046999;28;20031;-66
2021/12/17 10:21:12;;;;;;;5.03;2.40;;;5.30;99.90;;;;;;5051069;28;20483;-67
2021/12/17 10:23:41;;;;;;;7.22;2.67;;;5.10;99.90;;;;;;5069060;28;20420;-65
2021/12/17 10:26:12;;;;;;;3.72;2.28;;;5.00;99.90;;;;;;5069433;28;20731;-65
2021/12/17 10:28:37;;;;;;;7.30;2.88;;;4.90;99.90;;;;;;5066149;28;20430;-65
2021/12/17 10:31:08;;;;;;;4.83;2.77;;;4.90;99.90;;;;;;5068986;28;20043;-67
2021/12/17 10:33:34;;;;;;;9.60;2.58;;;4.80;99.90;;;;;;5072141;28;20028;-65
2021/12/17 10:36:03;;;;;;;6.27;2.70;;;4.80;99.90;;;;;;5055762;28;20028;-68
2021/12/17 10:38:29;;;;;;;3.97;2.20;;;4.80;99.90;;;;;;5067888;28;20042;-66
2021/12/17 10:41:05;;;;;;;5.30;2.40;;;4.80;99.90;;;;;;5067498;28;20048;-66
2021/12/17 10:43:36;;;;;;;14.68;6.82;;;4.70;99.90;;;;;;5065111;28;20028;-67
2021/12/17 10:49:36;;;;;;;9.00;2.97;;;4.80;99.90;;;;;;5061981;28;20016;-65
2021/12/17 10:51:48;;;;;;;6.72;2.65;;;4.70;99.90;;;;;;5053934;28;20047;-66
2021/12/17 10:54:19;;;;;;;6.28;2.10;;;4.80;99.90;;;;;;5048279;28;20028;-66
2021/12/17 10:56:55;;;;;;;6.20;2.42;;;4.80;99.90;;;;;;5067134;28;20032;-65
2021/12/17 10:59:24;;;;;;;5.68;2.03;;;4.90;99.90;;;;;;5063853;28;20017;-64
2021/12/17 11:01:54;;;;;;;7.47;3.40;;;4.90;99.90;;;;;;5062336;28;20021;-64
2021/12/17 11:04:24;;;;;;;6.22;2.97;;;5.00;99.90;;;;;;5066548;28;20472;-68
2021/12/17 11:06:52;;;;;;;6.18;2.58;;;5.00;99.90;;;;;;5058584;28;20085;-68
2021/12/17 11:09:45;;;;;;;5.10;2.45;;;5.00;99.90;;;;;;5060177;28;20090;-66
2021/12/17 11:12:14;;;;;;;4.38;2.25;;;5.00;99.90;;;;;;5064397;28;20021;-66
2021/12/17 11:14:44;;;;;;;6.07;2.40;;;5.00;99.90;;;;;;5067329;28;20037;-67
2021/12/17 11:17:11;;;;;;;2.45;1.55;;;5.00;99.90;;;;;;5063413;28;20028;-64
2021/12/17 11:19:37;;;;;;;;;;;5.00;99.90;;;;;;5057717;28;20040;-67
2021/12/17 11:22:03;;;;;;;2.13;0.98;;;4.90;99.90;;;;;;5064723;28;19917;-68
2021/12/17 11:24:32;;;;;;;2.88;0.82;;;4.60;99.90;;;;;;5068040;28;20025;-67
2021/12/17 11:26:59;;;;;;;1.63;1.33;;;4.30;99.90;;;;;;5044025;28;20090;-67
2021/12/17 11:29:25;;;;;;;;;;;4.00;99.90;;;;;;5067719;28;20079;-67
2021/12/17 11:31:51;;;;;;;2.38;1.00;;;3.80;99.90;;;;;;5057482;28;20268;-65
2021/12/17 11:34:19;;;;;;;1.92;1.00;;;3.70;99.90;;;;;;5062555;28;20060;-64
2021/12/17 11:36:46;;;;;;;4.43;2.30;;;3.70;99.90;;;;;;5066645;28;20032;-65
2021/12/17 11:39:40;;;;;;;6.47;1.95;;;3.70;99.90;;;;;;5064310;28;20045;-66
2021/12/17 11:42:42;;;;;;;3.45;1.50;;;3.80;99.90;;;;;;5065320;28;20484;-68
2021/12/17 11:45:25;;;;;;;4.53;1.50;;;3.80;99.90;;;;;;5059849;28;20024;-67
2021/12/17 11:48:12;;;;;;;2.67;1.50;;;3.80;99.90;;;;;;5063814;28;20051;-67
2021/12/17 11:50:38;;;;;;;3.50;1.40;;;4.30;99.90;;;;;;5060992;28;20052;-67
2021/12/17 11:53:24;;;;;;;3.43;1.83;;;3.70;99.90;;;;;;5066693;28;20396;-66
2021/12/17 11:56:02;;;;;;;3.20;1.77;;;3.60;99.90;;;;;;5051232;28;20036;-66
2021/12/17 11:58:50;;;;;;;7.43;2.92;;;3.60;99.90;;;;;;5070828;28;20070;-67
2021/12/17 12:01:50;;;;;;;41.70;23.55;;;3.60;99.90;;;;;;5071245;28;20487;-65
2021/12/17 12:04:39;;;;;;;3.50;1.70;;;3.50;99.90;;;;;;5066433;28;20036;-66
2021/12/17 12:07:11;;;;;;;6.13;2.10;;;3.70;99.90;;;;;;5068285;28;20152;-67
2021/12/17 12:09:56;;;;;;;3.83;2.20;;;3.70;99.90;;;;;;5069024;28;20044;-66
2021/12/17 12:12:22;;;;;;;3.50;2.15;;;3.80;99.90;;;;;;5063517;28;20507;-66
2021/12/17 12:14:48;;;;;;;;;;;3.80;99.90;;;;;;5069051;28;20025;-67
2021/12/17 12:17:34;;;;;;;6.57;2.60;;;3.80;99.90;;;;;;5069436;28;19989;-66
2021/12/17 12:19:59;;;;;;;6.78;2.53;;;3.70;99.90;;;;;;5065271;28;20403;-66
2021/12/17 12:22:30;;;;;;;7.67;3.20;;;3.80;99.90;;;;;;5063446;28;20036;-66
2021/12/17 12:25:29;;;;;;;7.18;3.97;;;3.80;99.90;;;;;;5064392;28;20060;-65
2021/12/17 12:27:55;;;;;;;;;;;3.90;99.90;;;;;;5064744;28;20119;-70
2021/12/17 12:30:42;;;;;;;5.47;2.80;;;3.90;99.90;;;;;;5064724;28;20442;-66
2021/12/17 12:33:09;;;;;;;5.70;2.67;;;4.00;99.90;;;;;;5061139;28;20026;-67
2021/12/17 12:35:35;;;;;;;3.72;2.15;;;4.10;99.90;;;;;;5061073;28;20385;-66
2021/12/17 12:38:16;;;;;;;7.00;3.00;;;4.10;99.90;;;;;;5059163;28;20032;-66
2021/12/17 12:40:49;;;;;;;7.55;2.55;;;4.10;99.90;;;;;;5057509;28;20103;-65
2021/12/17 12:43:26;;;;;;;5.45;2.33;;;4.10;99.90;;;;;;5042279;28;20126;-66
2021/12/17 12:45:52;;;;;;;5.53;2.00;;;4.10;99.90;;;;;;5059504;28;20056;-69
2021/12/17 12:48:30;;;;;;;6.00;2.63;;;4.10;99.90;;;;;;5042100;28;20468;-68
2021/12/17 12:51:17;;;;;;;3.13;1.90;;;4.20;99.90;;;;;;5059335;28;20134;-66
2021/12/17 12:54:06;;;;;;;3.83;2.42;;;4.20;99.90;;;;;;5058259;28;20523;-66
2021/12/17 12:56:33;;;;;;;6.45;2.65;;;4.20;99.90;;;;;;5058105;28;20179;-67
2021/12/17 12:58:59;;;;;;;5.45;2.55;;;4.20;99.90;;;;;;5042986;28;20151;-67
2021/12/17 13:01:25;;;;;;;7.85;2.75;;;4.10;99.90;;;;;;5038753;28;20106;-67
2021/12/17 13:03:51;;;;;;;5.78;3.17;;;4.10;99.90;;;;;;5060071;28;20035;-67
2021/12/17 13:06:20;;;;;;;5.83;2.80;;;4.10;99.90;;;;;;5059940;28;20024;-67
2021/12/17 13:08:57;;;;;;;5.57;2.38;;;4.00;99.90;;;;;;5044322;28;20024;-68
2021/12/17 13:11:24;;;;;;;5.13;2.15;;;3.80;99.90;;;;;;5059971;28;20037;-66
2021/12/17 13:22:28;;;;;;;3.28;1.58;;;3.50;99.90;;;;;;5064714;28;20078;-66
2021/12/17 13:24:36;;;;;;;11.05;5.95;;;3.40;99.90;;;;;;5062106;28;20036;-66
2021/12/17 13:27:10;;;;;;;4.85;2.33;;;3.60;99.90;;;;;;5065541;28;20468;-65
2021/12/17 13:29:43;;;;;;;5.75;2.33;;;3.70;99.90;;;;;;5056018;28;20504;-66
2021/12/17 13:32:17;;;;;;;5.32;2.33;;;3.80;99.90;;;;;;5065485;28;20021;-65
2021/12/17 13:34:56;;;;;;;4.80;2.60;;;3.80;99.90;;;;;;5061998;28;20875;-66
2021/12/17 13:37:28;;;;;;;11.07;7.47;;;3.80;99.90;;;;;;5049021;28;20036;-67
2021/12/17 13:40:20;;;;;;;8.13;3.78;;;3.90;99.90;;;;;;5058864;28;20048;-66
2021/12/17 13:42:46;;;;;;;4.07;2.30;;;4.00;99.90;;;;;;5061166;28;20032;-67
2021/12/17 13:45:25;;;;;;;6.65;2.58;;;4.20;99.90;;;;;;5066445;28;20048;-64
2021/12/17 13:47:55;;;;;;;6.80;3.05;;;4.20;99.90;;;;;;5065160;28;20115;-66
2021/12/17 13:50:31;;;;;;;4.85;2.58;;;4.10;99.90;;;;;;5067050;28;20726;-66
2021/12/17 13:52:59;;;;;;;6.10;2.70;;;4.10;99.90;;;;;;5049201;28;20328;-65
2021/12/17 13:55:34;;;;;;;5.70;2.65;;;4.10;99.90;;;;;;5061776;28;20037;-65
2021/12/17 13:58:05;;;;;;;5.97;2.75;;;4.10;99.90;;;;;;5065462;28;20518;-66
2021/12/17 14:00:36;;;;;;;8.60;3.47;;;4.10;99.90;;;;;;5062394;28;20055;-65
2021/12/17 14:03:02;;;;;;;6.43;3.95;;;4.10;99.90;;;;;;5046282;28;20430;-66
2021/12/17 14:05:40;;;;;;;8.23;3.53;;;4.00;99.90;;;;;;5061051;28;20056;-66
2021/12/17 14:08:09;;;;;;;8.38;3.95;;;4.00;99.90;;;;;;5057978;28;20047;-66
2021/12/17 14:10:36;;;;;;;9.48;4.32;;;4.00;99.90;;;;;;5057047;28;20032;-66
2021/12/17 14:13:03;;;;;;;7.28;3.78;;;4.10;99.90;;;;;;5060340;28;20055;-66
2021/12/17 14:15:32;;;;;;;8.95;4.63;;;4.10;99.90;;;;;;5059697;28;20029;-66
2021/12/17 14:18:06;;;;;;;8.38;4.53;;;4.10;99.90;;;;;;5063834;28;20105;-65
2021/12/17 14:20:41;;;;;;;11.50;4.40;;;4.00;99.90;;;;;;5043204;28;20474;-65
2021/12/17 14:23:16;;;;;;;9.43;4.22;;;4.10;99.90;;;;;;5061897;28;20059;-65
2021/12/17 14:25:44;;;;;;;8.68;3.80;;;4.10;99.90;;;;;;5059567;28;20030;-65
2021/12/17 14:28:17;;;;;;;11.40;3.83;;;4.10;99.90;;;;;;5064313;28;20029;-65
2021/12/17 14:31:00;;;;;;;6.05;3.20;;;4.10;99.90;;;;;;5043593;28;20028;-65
2021/12/17 14:33:33;;;;;;;7.97;3.63;;;4.00;99.90;;;;;;5061735;28;20055;-66
2021/12/17 14:36:02;;;;;;;7.35;3.72;;;4.00;99.90;;;;;;5064863;28;20162;-65
2021/12/17 14:38:47;;;;;;;4.65;2.70;;;4.00;99.90;;;;;;5055985;28;20033;-65
2021/12/17 14:41:44;;;;;;;6.45;3.20;;;3.90;99.90;;;;;;5059183;28;20028;-65
2021/12/17 14:44:40;;;;;;;4.93;2.65;;;3.80;99.90;;;;;;5059510;28;20052;-65
2021/12/17 14:47:17;;;;;;;6.78;3.13;;;3.60;99.90;;;;;;5057421;28;20068;-66
2021/12/17 15:00:26;;;;;;;11.52;5.75;;;3.40;99.90;;;;;;5059869;28;20159;-68
2021/12/17 15:05:26;;;;;;;5.20;2.22;;;3.30;99.90;;;;;;5059629;28;19912;-67
2021/12/17 15:07:54;;;;;;;6.70;2.75;;;3.30;99.90;;;;;;5060077;28;20115;-67
2021/12/17 15:10:22;;;;;;;5.30;2.33;;;3.30;99.90;;;;;;5059051;28;20032;-67
2021/12/17 15:12:49;;;;;;;5.18;2.70;;;3.30;99.90;;;;;;5059540;28;20479;-67
2021/12/17 15:15:19;;;;;;;4.85;2.70;;;3.40;99.90;;;;;;5062319;28;20371;-68
2021/12/17 15:17:47;;;;;;;5.45;2.60;;;3.40;99.90;;;;;;5060267;28;20037;-67
2021/12/17 15:20:14;;;;;;;7.45;3.45;;;3.50;99.90;;;;;;5060999;28;20360;-68
2021/12/17 15:22:41;;;;;;;8.13;2.78;;;3.60;99.90;;;;;;5056015;28;20027;-67
2021/12/17 15:25:08;;;;;;;;;;;3.60;99.90;;;;;;5063943;28;20029;-67
2021/12/17 15:27:35;;;;;;;6.22;2.80;;;3.60;99.90;;;;;;5062860;28;19921;-68
2021/12/17 15:30:08;;;;;;;4.28;2.53;;;3.60;99.90;;;;;;5059194;28;20360;-68
2021/12/17 15:32:34;;;;;;;5.22;2.60;;;3.60;99.90;;;;;;5067576;28;20044;-68
2021/12/17 15:34:59;;;;;;;6.68;2.50;;;3.60;99.90;;;;;;5061854;28;20047;-68
2021/12/17 15:37:25;;;;;;;4.20;2.33;;;3.60;99.90;;;;;;5069222;28;20264;-69
2021/12/17 15:39:51;;;;;;;6.33;2.73;;;3.60;99.90;;;;;;5068449;28;20044;-68
2021/12/17 15:42:17;;;;;;;5.03;2.23;;;3.50;99.90;;;;;;5064349;28;20040;-68
2021/12/17 15:44:42;;;;;;;3.63;1.93;;;3.60;99.90;;;;;;5062432;28;20033;-67
2021/12/17 15:47:08;;;;;;;5.17;2.20;;;3.50;99.90;;;;;;5065349;28;20124;-67
2021/12/17 15:49:37;;;;;;;4.40;2.40;;;3.40;99.90;;;;;;5065561;28;20415;-65
2021/12/17 15:52:04;;;;;;;4.60;2.00;;;3.40;99.90;;;;;;5070946;28;20033;-63
2021/12/17 15:54:30;;;;;;;5.18;2.30;;;3.50;99.90;;;;;;5071047;28;20124;-65
2021/12/17 15:56:56;;;;;;;5.97;2.28;;;3.50;99.90;;;;;;5053555;28;20085;-65
2021/12/17 15:59:22;;;;;;;4.77;2.20;;;3.40;99.90;;;;;;5072335;28;20032;-69
2021/12/17 16:01:47;;;;;;;3.87;2.10;;;3.50;99.90;;;;;;5074366;28;20039;-67
2021/12/17 16:04:14;;;;;;;6.83;2.40;;;3.50;99.90;;;;;;5071856;28;20086;-67
2021/12/17 16:06:39;;;;;;;5.90;2.15;;;3.50;99.90;;;;;;5076055;28;20029;-69
2021/12/17 16:09:12;;;;;;;5.27;2.07;;;3.50;99.90;;;;;;5074632;28;20033;-69
2021/12/17 16:11:55;;;;;;;7.35;2.70;;;3.60;99.90;;;;;;5073018;28;20098;-73
2021/12/17 16:18:01;;;;;;;4.15;1.98;;;3.60;99.90;;;;;;5071410;28;20117;-73
2021/12/17 16:22:53;;;;;;;4.57;2.15;;;3.30;99.90;;;;;;5072337;28;20080;-73
2021/12/17 16:25:18;;;;;;;4.63;2.30;;;3.30;99.90;;;;;;5053201;28;20029;-74
2021/12/17 16:27:44;;;;;;;6.87;3.00;;;3.20;99.90;;;;;;5072063;28;20595;-72
2021/12/17 16:30:11;;;;;;;5.77;2.70;;;3.20;99.90;;;;;;5062596;28;20115;-74
2021/12/17 16:32:36;;;;;;;6.60;2.75;;;3.20;99.90;;;;;;5066567;28;20488;-73
2021/12/17 16:35:03;;;;;;;6.63;3.30;;;3.20;99.90;;;;;;5070220;28;20178;-73
2021/12/17 16:37:29;;;;;;;4.85;2.63;;;3.20;99.90;;;;;;5053176;28;20035;-73
2021/12/17 16:39:55;;;;;;;6.47;2.93;;;3.10;99.90;;;;;;5054737;28;20041;-72
2021/12/17 16:42:21;;;;;;;6.30;3.33;;;3.10;99.90;;;;;;5054893;28;20528;-73